Time;durP1;ratioP1;P1;durP2;ratioP2;P2;SDS_P1;SDS_P2;PMS_P1;PMS_P2;Temp;Humidity;BMP_temperature;BMP_pressure;BME280_temperature;BME280_humidity;BME280_pressure;Samples;Min_cycle;Max_cycle;Signal;HPM_P1;HPM_P2
2022/06/18 00:00:53;;;;;;;8.83;4.15;;;;;;;13.25;87.86;95030.39;1737915;82;21229;-49
2022/06/18 00:03:22;;;;;;;6.92;4.28;;;;;;;13.22;87.78;95034.05;1738048;82;20935;-49
2022/06/18 00:05:54;;;;;;;11.83;6.47;;;;;;;13.20;88.04;95032.34;1737907;82;21424;-49
2022/06/18 00:08:24;;;;;;;11.40;6.78;;;;;;;13.15;88.02;95032.95;1738278;82;20964;-49
2022/06/18 00:13:41;;;;;;;10.03;6.40;;;;;;;13.08;88.55;95022.20;1722393;82;21827;-49
2022/06/18 00:16:13;;;;;;;8.33;6.40;;;;;;;13.03;88.75;95022.78;1737862;82;20987;-50
2022/06/18 00:18:42;;;;;;;9.50;5.45;;;;;;;13.00;88.43;95022.32;1737965;82;20959;-50
2022/06/18 00:21:16;;;;;;;8.63;6.28;;;;;;;12.97;88.21;95025.40;1738239;82;20973;-50
2022/06/18 00:23:45;;;;;;;8.10;5.72;;;;;;;12.91;88.21;95018.88;1738075;82;21046;-50
2022/06/18 00:26:12;;;;;;;12.90;7.12;;;;;;;12.89;88.37;95013.05;1712470;82;21411;-49
2022/06/18 00:28:42;;;;;;;7.35;5.70;;;;;;;12.84;88.46;95026.68;1666743;82;20968;-49
2022/06/18 00:31:09;;;;;;;8.33;5.37;;;;;;;12.81;88.57;95020.69;1733166;82;21420;-50
2022/06/18 00:33:40;;;;;;;5.78;5.03;;;;;;;12.74;88.56;95023.74;1712672;82;21004;-49
2022/06/18 00:36:13;;;;;;;6.55;5.08;;;;;;;12.71;88.64;95020.52;1733198;82;20936;-51
2022/06/18 00:38:43;;;;;;;12.40;4.80;;;;;;;12.66;88.61;95025.22;1732930;82;21254;-49
2022/06/18 00:41:18;;;;;;;7.47;3.85;;;;;;;12.61;89.08;95017.54;1733088;82;20984;-49
2022/06/18 00:43:58;;;;;;;7.17;3.90;;;;;;;12.63;89.17;95028.89;1732911;82;20991;-49
2022/06/18 00:46:50;;;;;;;4.40;4.00;;;;;;;12.68;88.88;95029.70;1732987;82;21491;-48
2022/06/18 00:49:38;;;;;;;6.62;4.12;;;;;;;12.68;88.80;95031.84;1732726;82;20940;-50
2022/06/18 00:52:21;;;;;;;5.72;3.85;;;;;;;12.66;88.79;95027.39;1733126;82;21133;-50
2022/06/18 00:55:21;;;;;;;4.55;3.98;;;;;;;12.66;88.83;95037.64;1732947;82;20988;-49
2022/06/18 00:58:01;;;;;;;6.60;3.77;;;;;;;12.69;88.98;95034.75;1732858;82;20967;-49
2022/06/18 01:00:41;;;;;;;7.80;3.83;;;;;;;12.69;88.45;95028.48;1732862;82;20971;-49
2022/06/18 01:03:31;;;;;;;3.77;3.33;;;;;;;12.68;88.43;95040.75;1733267;82;20948;-49
2022/06/18 01:06:04;;;;;;;4.87;4.05;;;;;;;12.65;88.45;95035.51;1732905;82;21261;-48
2022/06/18 01:08:33;;;;;;;6.20;3.77;;;;;;;12.64;88.58;95034.57;1712396;82;21419;-48
2022/06/18 01:11:05;;;;;;;4.45;4.05;;;;;;;12.65;88.68;95033.34;1733026;82;20952;-49
2022/06/18 01:13:35;;;;;;;4.17;3.80;;;;;;;12.70;88.87;95028.64;1712648;82;21472;-49
2022/06/18 01:16:06;;;;;;;4.25;3.85;;;;;;;12.74;88.62;95037.55;1733096;82;20995;-48
2022/06/18 01:18:34;;;;;;;9.23;4.45;;;;;;;12.74;88.43;95026.50;1733073;82;21832;-49
2022/06/18 01:21:51;;;;;;;6.80;3.98;;;;;;;12.72;88.22;95024.18;1732891;82;20987;-49
2022/06/18 01:24:22;;;;;;;7.72;4.10;;;;;;;12.69;88.30;95024.34;1733082;82;21014;-49
2022/06/18 01:26:53;;;;;;;4.78;3.75;;;;;;;12.61;88.00;95014.78;1737962;82;21110;-49
2022/06/18 01:29:21;;;;;;;4.60;3.52;;;;;;;12.55;88.19;95021.50;1738202;82;20960;-49
2022/06/18 01:31:51;;;;;;;5.22;4.08;;;;;;;12.53;88.04;95016.88;1738034;82;21431;-48
2022/06/18 01:34:20;;;;;;;7.28;3.45;;;;;;;12.51;87.98;95016.57;1738025;82;20948;-50
2022/06/18 01:36:49;;;;;;;5.67;3.60;;;;;;;12.47;87.68;95015.32;1737564;82;20951;-49
2022/06/18 01:39:20;;;;;;;4.25;3.85;;;;;;;12.41;87.79;95024.03;1737916;82;21119;-49
2022/06/18 01:41:51;;;;;;;4.50;3.20;;;;;;;12.40;87.88;95018.36;1738059;82;21023;-49
2022/06/18 01:44:39;;;;;;;;;;;;;;;12.37;87.63;95015.13;1739957;82;21784;-49
2022/06/18 01:47:18;;;;;;;4.50;4.10;;;;;;;12.37;87.77;95017.11;1708476;84;20146;-49
2022/06/18 01:49:54;;;;;;;4.47;4.08;;;;;;;12.34;87.67;95023.53;1688594;84;21542;-50
2022/06/18 01:52:24;;;;;;;5.15;3.72;;;;;;;12.32;87.67;95019.86;1737800;82;20994;-49
2022/06/18 01:54:55;;;;;;;4.50;3.60;;;;;;;12.30;87.76;95020.89;1737442;82;21048;-49
2022/06/18 01:57:33;;;;;;;4.95;4.08;;;;;;;12.27;87.76;95021.80;1737929;82;21524;-49
2022/06/18 02:00:07;;;;;;;4.80;4.15;;;;;;;12.27;88.18;95027.95;1737951;82;20935;-49
2022/06/18 02:02:46;;;;;;;5.35;4.28;;;;;;;12.27;88.31;95027.32;1737566;82;21027;-48
2022/06/18 02:05:15;;;;;;;4.37;3.87;;;;;;;12.26;88.66;95018.13;1717255;82;21064;-50
2022/06/18 02:07:43;;;;;;;6.30;4.55;;;;;;;12.25;89.10;95023.49;1737798;82;20964;-49
2022/06/18 02:10:18;;;;;;;11.63;4.62;;;;;;;12.26;89.11;95021.64;1738108;82;21859;-49
2022/06/18 02:12:46;;;;;;;8.90;5.62;;;;;;;12.26;89.47;95028.54;1737687;82;21443;-50
2022/06/18 02:15:21;;;;;;;12.58;6.42;;;;;;;12.26;89.30;95024.41;1738241;82;21555;-48
2022/06/18 02:17:51;;;;;;;22.95;8.38;;;;;;;12.25;89.18;95024.87;1737889;82;20948;-49
2022/06/18 02:20:25;;;;;;;11.53;6.87;;;;;;;12.18;89.07;95027.88;1737906;82;20988;-49
2022/06/18 02:22:54;;;;;;;6.45;5.28;;;;;;;12.12;89.19;95026.30;1717532;82;21184;-48
2022/06/18 02:25:25;;;;;;;7.08;4.45;;;;;;;12.13;89.31;95025.70;1737818;82;21455;-49
2022/06/18 02:28:02;;;;;;;4.67;4.28;;;;;;;12.14;88.99;95023.89;1737908;82;21038;-50
2022/06/18 02:30:34;;;;;;;5.42;4.10;;;;;;;12.13;88.94;95026.48;1738072;82;20964;-48
2022/06/18 02:33:33;;;;;;;4.10;3.80;;;;;;;12.15;88.67;95025.42;1718100;82;20959;-48
2022/06/18 02:36:15;;;;;;;5.42;3.77;;;;;;;12.15;88.12;95031.53;1738066;82;21745;-49
2022/06/18 02:38:45;;;;;;;7.53;3.37;;;;;;;12.12;87.66;95034.58;1717446;82;21003;-52
2022/06/18 02:41:14;;;;;;;5.00;3.47;;;;;;;12.11;87.52;95033.03;1738330;82;20959;-49
2022/06/18 02:43:42;;;;;;;8.83;3.80;;;;;;;12.04;86.88;95030.55;1716887;82;21332;-49
2022/06/18 02:46:09;;;;;;;5.95;3.65;;;;;;;11.96;87.11;95032.03;1738090;82;21021;-49
2022/06/18 02:48:38;;;;;;;9.20;4.50;;;;;;;11.90;87.06;95033.05;1737698;82;21243;-48
2022/06/18 02:51:07;;;;;;;13.08;4.05;;;;;;;11.84;87.63;95037.59;1737797;82;21044;-50
2022/06/18 02:53:35;;;;;;;6.83;4.28;;;;;;;11.79;88.02;95046.44;1737758;82;21034;-49
2022/06/18 02:56:06;;;;;;;4.80;4.10;;;;;;;11.76;88.34;95045.95;1737826;82;20999;-50
2022/06/18 02:58:42;;;;;;;8.28;4.60;;;;;;;11.77;88.63;95060.69;1738001;82;20948;-49
2022/06/18 03:01:18;;;;;;;6.78;4.67;;;;;;;11.79;88.46;95058.24;1737937;82;21412;-49
2022/06/18 03:03:50;;;;;;;6.10;5.22;;;;;;;11.81;88.24;95053.05;1737745;82;21004;-50
2022/06/18 03:06:19;;;;;;;5.90;4.28;;;;;;;11.82;87.91;95051.05;1717400;82;20975;-49
2022/06/18 03:08:48;;;;;;;7.58;4.12;;;;;;;11.82;87.96;95055.19;1738021;82;21530;-49
2022/06/18 03:14:02;;;;;;;6.42;3.60;;;;;;;11.84;88.00;95060.42;1717032;82;21272;-50
2022/06/18 03:16:31;;;;;;;5.95;4.10;;;;;;;11.84;88.00;95063.18;1737903;82;21001;-49
2022/06/18 03:19:01;;;;;;;5.90;4.20;;;;;;;11.84;88.19;95064.56;1738021;82;21003;-49
2022/06/18 03:21:46;;;;;;;5.78;4.40;;;;;;;11.86;88.01;95069.02;1737819;82;20995;-49
2022/06/18 03:24:16;;;;;;;5.28;3.70;;;;;;;11.80;87.95;95068.05;1738073;82;21063;-49
2022/06/18 03:26:44;;;;;;;9.48;3.90;;;;;;;11.73;88.09;95070.28;1737682;82;21796;-50
2022/06/18 03:29:15;;;;;;;8.25;4.20;;;;;;;11.72;88.59;95070.88;1717914;82;21063;-50
2022/06/18 03:31:43;;;;;;;6.03;4.67;;;;;;;11.80;88.90;95069.43;1737756;82;21743;-50
2022/06/18 03:34:11;;;;;;;4.50;3.90;;;;;;;11.95;89.30;95073.23;1738112;82;21007;-49
2022/06/18 03:36:39;;;;;;;4.22;3.87;;;;;;;12.09;88.63;95070.58;1737845;82;20963;-50
2022/06/18 03:39:07;;;;;;;5.12;4.62;;;;;;;12.20;88.62;95073.70;1738129;82;21853;-49
2022/06/18 03:41:38;;;;;;;6.50;4.65;;;;;;;12.37;88.60;95070.91;1737677;82;21035;-48
2022/06/18 03:44:05;;;;;;;5.25;4.10;;;;;;;12.51;88.03;95072.55;1738289;82;20987;-50
2022/06/18 03:46:37;;;;;;;7.30;5.10;;;;;;;12.61;87.68;95066.62;1737859;82;20944;-49
2022/06/18 03:49:06;;;;;;;5.37;4.30;;;;;;;12.73;87.66;95067.13;1717345;82;21026;-50
2022/06/18 03:51:36;;;;;;;7.20;5.45;;;;;;;12.86;87.25;95069.81;1717779;82;21172;-49
2022/06/18 03:54:04;;;;;;;7.05;4.45;;;;;;;12.98;86.92;95078.63;1737888;82;21549;-49
2022/06/18 03:56:33;;;;;;;7.85;4.10;;;;;;;13.11;86.46;95073.15;1737807;82;20963;-49
2022/06/18 03:59:03;;;;;;;8.88;4.67;;;;;;;13.25;86.13;95069.07;1737994;82;21467;-50
2022/06/18 04:01:33;;;;;;;5.47;4.10;;;;;;;13.40;85.60;95078.30;1738215;82;21490;-49
2022/06/18 04:04:04;;;;;;;5.67;4.60;;;;;;;13.50;85.05;95070.20;1737553;82;21240;-49
2022/06/18 04:06:40;;;;;;;3.75;3.45;;;;;;;13.62;84.41;95066.55;1737670;82;20947;-48
2022/06/18 04:09:23;;;;;;;5.92;4.22;;;;;;;13.67;83.42;95069.45;1701980;82;26538;-50
2022/06/18 04:11:52;;;;;;;8.08;4.40;;;;;;;13.60;83.15;95067.63;1737936;82;21439;-51
2022/06/18 04:14:20;;;;;;;9.63;4.00;;;;;;;13.64;83.35;95061.32;1693546;82;21478;-49
2022/06/18 04:16:59;;;;;;;5.25;4.47;;;;;;;13.73;82.98;95064.08;1736633;82;21045;-48
2022/06/18 04:19:27;;;;;;;11.33;4.80;;;;;;;13.84;82.30;95067.17;1717259;82;21007;-49
2022/06/18 04:21:56;;;;;;;5.60;4.37;;;;;;;13.98;82.11;95069.34;1737884;82;20971;-50
2022/06/18 04:24:25;;;;;;;4.78;4.15;;;;;;;14.13;81.79;95065.48;1736241;82;20999;-49
2022/06/18 04:26:54;;;;;;;7.85;4.58;;;;;;;14.31;80.79;95067.48;1732428;82;20976;-49
2022/06/18 04:29:22;;;;;;;8.73;4.75;;;;;;;14.42;80.49;95076.09;1730548;83;21240;-50
2022/06/18 04:31:51;;;;;;;12.85;5.12;;;;;;;14.55;80.25;95064.39;1730500;83;20960;-52
2022/06/18 04:34:21;;;;;;;10.23;5.25;;;;;;;14.70;79.61;95065.28;1730627;83;21574;-50
2022/06/18 04:36:50;;;;;;;7.85;4.70;;;;;;;14.80;79.35;95070.19;1710252;83;20963;-50
2022/06/18 04:39:24;;;;;;;5.90;4.62;;;;;;;14.84;78.64;95073.55;1728821;82;20943;-50
2022/06/18 04:42:11;;;;;;;7.10;4.42;;;;;;;14.92;78.40;95071.97;1730657;83;21185;-50
2022/06/18 04:44:42;;;;;;;5.72;4.00;;;;;;;15.05;77.98;95073.33;1730533;83;21035;-49
2022/06/18 04:47:12;;;;;;;4.55;3.60;;;;;;;15.19;77.28;95079.56;1729872;82;21004;-50
2022/06/18 04:49:40;;;;;;;4.80;3.80;;;;;;;15.25;76.87;95079.09;1730453;83;21003;-49
2022/06/18 04:52:11;;;;;;;7.58;4.00;;;;;;;15.30;76.76;95081.25;1730882;83;20944;-49
2022/06/18 04:54:44;;;;;;;4.12;3.70;;;;;;;15.35;76.32;95083.38;1730341;81;21246;-50
2022/06/18 04:57:12;;;;;;;6.08;3.40;;;;;;;15.42;76.25;95084.44;1730665;83;21007;-48
2022/06/18 04:59:43;;;;;;;15.23;4.22;;;;;;;15.51;75.32;95085.02;1710347;83;20948;-48
2022/06/18 05:02:19;;;;;;;6.53;3.75;;;;;;;15.58;75.37;95084.02;1730785;83;21524;-49
2022/06/18 05:05:11;;;;;;;4.53;4.12;;;;;;;15.69;75.21;95088.44;1730588;83;21047;-50
2022/06/18 05:07:57;;;;;;;8.10;3.98;;;;;;;15.81;75.18;95090.22;1730584;83;22064;-51
2022/06/18 05:10:27;;;;;;;6.58;4.47;;;;;;;15.92;74.41;95086.27;1728113;82;21043;-51
2022/06/18 05:12:58;;;;;;;9.35;4.53;;;;;;;16.00;73.59;95079.14;1709480;83;21005;-49
2022/06/18 05:15:44;;;;;;;12.80;5.00;;;;;;;16.10;73.20;95077.81;1730439;83;21003;-50
2022/06/18 05:18:16;;;;;;;8.50;4.28;;;;;;;16.25;72.92;95080.02;1710392;83;21071;-50
2022/06/18 05:20:51;;;;;;;5.20;3.67;;;;;;;16.39;72.84;95075.90;1730486;82;21141;-50
2022/06/18 05:23:21;;;;;;;4.95;3.65;;;;;;;16.54;72.60;95082.88;1709792;83;20968;-49
2022/06/18 05:25:52;;;;;;;7.80;4.08;;;;;;;16.66;71.77;95078.44;1734434;81;21061;-50
2022/06/18 05:28:20;;;;;;;5.25;3.58;;;;;;;16.74;71.31;95082.99;1730375;81;20998;-53
2022/06/18 05:30:48;;;;;;;13.00;4.62;;;;;;;16.84;71.07;95074.08;1752961;81;21440;-51
2022/06/18 05:33:17;;;;;;;5.15;4.42;;;;;;;16.96;71.15;95075.03;1752901;81;21237;-50
2022/06/18 05:35:46;;;;;;;13.08;5.33;;;;;;;17.04;70.02;95077.55;1752697;81;21464;-52
2022/06/18 05:38:18;;;;;;;8.20;4.80;;;;;;;17.09;69.67;95080.43;1752945;81;21029;-51
2022/06/18 05:40:46;;;;;;;11.05;3.70;;;;;;;17.18;70.41;95079.56;1752911;81;21505;-50
2022/06/18 05:43:15;;;;;;;9.55;4.03;;;;;;;17.26;70.31;95082.11;1753238;81;21427;-51
2022/06/18 05:45:43;;;;;;;9.05;3.92;;;;;;;17.35;69.75;95089.74;1752849;81;21065;-50
2022/06/18 05:48:11;;;;;;;8.15;4.30;;;;;;;17.45;69.02;95083.44;1753066;81;21075;-50
2022/06/18 05:50:40;;;;;;;5.67;3.80;;;;;;;17.56;68.97;95080.20;1752904;81;20943;-51
2022/06/18 05:53:09;;;;;;;5.58;3.58;;;;;;;17.72;68.42;95073.33;1753100;81;20962;-51
2022/06/18 05:55:40;;;;;;;7.37;3.77;;;;;;;17.80;66.47;95072.43;1752920;81;21549;-51
2022/06/18 05:58:09;;;;;;;14.05;6.65;;;;;;;17.84;65.51;95069.45;1713055;81;21319;-50
2022/06/18 06:00:39;;;;;;;8.75;6.85;;;;;;;17.89;65.39;95072.31;1729536;81;20956;-50
2022/06/18 06:03:08;;;;;;;5.92;4.70;;;;;;;17.95;63.57;95062.62;1752826;81;20982;-51
2022/06/18 06:05:35;;;;;;;6.70;3.33;;;;;;;18.05;63.30;95062.63;1752948;81;21499;-49
2022/06/18 06:08:04;;;;;;;8.13;5.33;;;;;;;18.11;62.40;95068.41;1752821;81;21163;-50
2022/06/18 06:13:22;;;;;;;11.95;9.38;;;;;;;18.34;63.04;95072.41;1752832;81;21096;-50
2022/06/18 06:15:52;;;;;;;7.75;5.58;;;;;;;18.38;60.30;95071.55;1730258;81;21027;-50
2022/06/18 06:18:22;;;;;;;7.58;4.85;;;;;;;18.42;60.42;95075.53;1752820;81;21454;-48
2022/06/18 06:20:52;;;;;;;4.10;2.62;;;;;;;18.56;60.31;95082.40;1752752;81;20986;-50
2022/06/18 06:23:20;;;;;;;10.50;3.22;;;;;;;18.70;57.80;95082.94;1753176;81;21038;-50
2022/06/18 06:25:48;;;;;;;3.90;2.62;;;;;;;18.82;57.42;95082.41;1729241;81;21007;-53
2022/06/18 06:28:22;;;;;;;6.80;2.62;;;;;;;18.90;55.99;95077.30;1738083;82;20999;-51
2022/06/18 06:30:51;;;;;;;2.85;2.55;;;;;;;18.91;55.39;95077.44;1737994;82;20967;-49
2022/06/18 06:33:20;;;;;;;2.87;2.62;;;;;;;18.88;55.05;95073.46;1737715;82;21006;-50
2022/06/18 06:35:49;;;;;;;3.65;2.40;;;;;;;18.89;55.92;95068.80;1738097;82;21290;-51
2022/06/18 06:38:16;;;;;;;2.95;2.70;;;;;;;19.00;57.12;95075.86;1737641;82;21503;-51
2022/06/18 06:40:44;;;;;;;6.92;2.87;;;;;;;19.08;56.74;95069.20;1737696;82;21510;-51
2022/06/18 06:43:13;;;;;;;5.50;2.72;;;;;;;19.12;56.54;95069.13;1738260;82;21419;-51
2022/06/18 06:45:41;;;;;;;4.28;2.62;;;;;;;19.15;56.82;95068.13;1717502;82;20955;-50
2022/06/18 06:48:10;;;;;;;9.38;5.45;;;;;;;19.19;56.15;95067.95;1737922;82;21264;-50
2022/06/18 06:50:38;;;;;;;7.80;3.52;;;;;;;19.23;56.81;95072.02;1737959;82;21105;-50
2022/06/18 06:53:06;;;;;;;2.77;2.47;;;;;;;19.26;55.41;95071.05;1737764;82;20976;-51
2022/06/18 06:58:23;;;;;;;4.10;2.15;;;;;;;19.36;54.68;95068.20;1737726;82;20995;-50
2022/06/18 07:00:54;;;;;;;6.58;3.00;;;;;;;19.51;55.23;95079.98;1737720;82;21257;-49
2022/06/18 07:03:27;;;;;;;4.55;2.80;;;;;;;19.71;54.70;95077.72;1737975;82;21086;-49
2022/06/18 07:05:56;;;;;;;2.47;2.02;;;;;;;19.87;52.92;95074.23;1718013;82;21066;-49
2022/06/18 07:08:25;;;;;;;3.12;2.17;;;;;;;19.94;52.59;95064.02;1738069;82;21063;-50
2022/06/18 07:10:54;;;;;;;4.70;2.12;;;;;;;19.88;52.18;95079.34;1737814;82;21141;-49
2022/06/18 07:13:22;;;;;;;3.80;2.35;;;;;;;19.81;52.22;95079.81;1738036;82;21156;-51
2022/06/18 07:15:51;;;;;;;20.15;3.40;;;;;;;19.82;52.19;95075.76;1737717;82;20947;-50
2022/06/18 07:18:23;;;;;;;3.10;2.30;;;;;;;19.83;52.69;95075.89;1737831;82;21007;-51
2022/06/18 07:20:51;;;;;;;5.53;2.80;;;;;;;19.91;53.83;95088.11;1737831;82;20960;-49
2022/06/18 07:23:20;;;;;;;3.00;2.30;;;;;;;19.98;53.46;95089.06;1738290;82;21008;-53
2022/06/18 07:25:48;;;;;;;7.35;2.52;;;;;;;20.00;53.57;95086.52;1736572;82;22266;-52
2022/06/18 07:28:16;;;;;;;6.65;2.52;;;;;;;20.00;52.25;95085.13;1729388;82;21006;-50
2022/06/18 07:30:46;;;;;;;3.87;2.95;;;;;;;19.94;52.87;95088.50;1730196;82;21124;-48
2022/06/18 07:33:17;;;;;;;5.60;4.00;;;;;;;19.86;53.07;95084.66;1729685;83;21117;-50
2022/06/18 07:35:45;;;;;;;7.70;3.08;;;;;;;19.91;53.01;95088.11;1709694;83;21019;-51
2022/06/18 07:38:13;;;;;;;5.15;2.40;;;;;;;20.07;53.15;95086.07;1730248;83;21242;-51
2022/06/18 07:40:44;;;;;;;5.70;3.65;;;;;;;20.30;52.52;95083.50;1730482;83;21503;-51
2022/06/18 07:43:28;;;;;;;2.50;2.30;;;;;;;20.53;52.70;95085.89;1730374;83;20948;-51
2022/06/18 07:45:58;;;;;;;6.55;2.10;;;;;;;20.73;48.33;95080.09;1730847;83;21650;-50
2022/06/18 07:48:26;;;;;;;2.30;2.02;;;;;;;20.76;47.76;95088.12;1730471;83;20996;-53
2022/06/18 07:50:54;;;;;;;5.58;2.55;;;;;;;20.62;47.39;95083.50;1709957;83;21940;-52
2022/06/18 07:53:24;;;;;;;4.15;2.40;;;;;;;20.40;47.62;95089.02;1686658;83;20956;-50
2022/06/18 07:55:52;;;;;;;4.37;1.92;;;;;;;20.18;47.82;95083.34;1730504;83;20988;-50
2022/06/18 07:58:20;;;;;;;2.42;1.98;;;;;;;20.11;49.07;95087.98;1730431;83;21003;-51
2022/06/18 08:00:48;;;;;;;3.58;1.80;;;;;;;20.24;49.81;95084.91;1730885;83;21062;-50
2022/06/18 08:03:16;;;;;;;3.15;2.15;;;;;;;20.47;49.13;95078.13;1709962;83;21547;-50
2022/06/18 08:05:45;;;;;;;4.90;1.90;;;;;;;20.72;48.95;95075.77;1710555;83;21046;-52
2022/06/18 08:08:14;;;;;;;2.12;1.70;;;;;;;20.98;48.83;95075.60;1710168;83;20956;-51
2022/06/18 08:10:44;;;;;;;2.92;1.95;;;;;;;21.13;47.19;95083.88;1730729;83;20975;-48
2022/06/18 08:13:13;;;;;;;3.00;1.92;;;;;;;21.16;47.13;95082.89;1709939;83;21015;-50
2022/06/18 08:15:42;;;;;;;1.77;1.60;;;;;;;21.10;46.08;95078.55;1730493;83;21420;-51
2022/06/18 08:18:10;;;;;;;6.17;1.60;;;;;;;20.97;46.56;95078.27;1730503;83;20964;-50
2022/06/18 08:20:38;;;;;;;1.85;1.32;;;;;;;20.96;46.18;95076.75;1730606;83;21017;-51
2022/06/18 08:23:06;;;;;;;2.15;1.60;;;;;;;20.98;44.20;95076.38;1709763;83;21039;-50
2022/06/18 08:25:37;;;;;;;5.10;1.72;;;;;;;20.97;45.27;95072.67;1710150;83;21019;-52
2022/06/18 08:28:05;;;;;;;4.42;2.52;;;;;;;21.05;46.36;95070.89;1735757;82;21256;-51
2022/06/18 08:30:33;;;;;;;2.87;1.50;;;;;;;21.26;47.46;95069.41;1737839;82;20955;-51
2022/06/18 08:33:02;;;;;;;5.70;2.10;;;;;;;21.48;46.95;95064.55;1737909;82;21064;-49
2022/06/18 08:35:30;;;;;;;3.17;1.65;;;;;;;21.62;43.47;95062.77;1737826;82;20956;-51
2022/06/18 08:37:58;;;;;;;3.00;1.52;;;;;;;21.74;45.92;95067.88;1717661;82;21082;-52
2022/06/18 08:40:46;;;;;;;3.42;1.60;;;;;;;21.79;42.19;95058.69;1717314;82;21271;-51
2022/06/18 08:43:46;;;;;;;5.87;1.82;;;;;;;21.71;42.97;95056.92;1723188;82;21043;-50
2022/06/18 08:46:47;;;;;;;4.30;1.30;;;;;;;21.77;41.53;95067.47;1737703;82;20983;-49
2022/06/18 08:49:54;;;;;;;3.42;1.50;;;;;;;21.82;43.30;95073.73;1737714;82;21055;-50
2022/06/18 08:52:47;;;;;;;12.25;1.90;;;;;;;21.98;41.12;95074.33;1684671;82;21003;-51
2022/06/18 08:55:35;;;;;;;4.50;1.67;;;;;;;22.06;41.52;95057.22;1737837;82;21180;-51
2022/06/18 08:58:14;;;;;;;2.00;1.50;;;;;;;22.18;44.55;95062.15;1737724;82;20952;-51
2022/06/18 09:01:10;;;;;;;2.35;1.50;;;;;;;22.42;45.43;95062.33;1717330;82;20959;-50
2022/06/18 09:03:48;;;;;;;4.85;1.82;;;;;;;22.62;45.59;95065.56;1737802;82;21004;-51
2022/06/18 09:06:33;;;;;;;5.60;2.27;;;;;;;22.89;45.75;95073.70;1738152;82;21152;-52
2022/06/18 09:09:33;;;;;;;3.05;1.75;;;;;;;23.15;43.01;95077.66;1737732;82;21284;-52
2022/06/18 09:12:18;;;;;;;1.87;1.35;;;;;;;23.36;42.12;95080.83;1737647;82;20919;-51
2022/06/18 09:15:11;;;;;;;3.40;1.82;;;;;;;23.33;41.60;95085.44;1735376;82;21066;-52
2022/06/18 09:18:00;;;;;;;3.67;1.60;;;;;;;23.32;42.21;95072.68;1737842;82;21542;-49
2022/06/18 09:20:39;;;;;;;2.60;1.40;;;;;;;23.48;42.17;95071.02;1730560;82;21136;-49
2022/06/18 09:23:18;;;;;;;4.75;1.40;;;;;;;23.58;41.70;95065.94;1737785;82;21318;-50
2022/06/18 09:25:48;;;;;;;1.50;1.40;;;;;;;23.53;41.20;95061.14;1728297;82;21483;-50
2022/06/18 09:28:21;;;;;;;5.35;2.22;;;;;;;23.59;40.90;95067.47;1737694;82;21467;-50
2022/06/18 09:30:53;;;;;;;4.58;2.02;;;;;;;23.54;41.14;95075.96;1738043;82;21038;-52
2022/06/18 09:33:43;;;;;;;3.15;1.60;;;;;;;23.47;41.79;95073.08;1738048;82;21431;-53
2022/06/18 09:36:24;;;;;;;1.80;1.40;;;;;;;23.53;42.93;95069.56;1732296;82;21222;-52
2022/06/18 09:39:08;;;;;;;3.55;1.25;;;;;;;23.71;40.50;95073.74;1738129;82;20951;-53
2022/06/18 09:41:46;;;;;;;1.75;1.10;;;;;;;23.86;41.17;95072.74;1717887;82;21039;-50
2022/06/18 09:44:37;;;;;;;2.12;1.37;;;;;;;23.93;39.55;95079.95;1737810;82;21546;-49
2022/06/18 09:47:31;;;;;;;3.67;1.17;;;;;;;24.00;39.32;95073.77;1738139;82;21023;-52
2022/06/18 09:49:59;;;;;;;3.35;1.00;;;;;;;24.14;37.99;95075.39;1692570;82;22261;-51
2022/06/18 09:52:36;;;;;;;1.22;1.10;;;;;;;24.26;38.08;95075.39;1737718;82;21000;-52
2022/06/18 09:55:12;;;;;;;1.25;0.90;;;;;;;24.35;38.58;95070.83;1738086;82;21098;-51
2022/06/18 09:57:42;;;;;;;1.35;0.98;;;;;;;24.46;37.68;95070.67;1720445;82;21436;-50
2022/06/18 10:00:17;;;;;;;2.95;1.20;;;;;;;24.54;37.70;95072.39;1737682;82;21026;-52
2022/06/18 10:02:56;;;;;;;1.17;1.10;;;;;;;24.60;38.87;95061.83;1708264;84;21303;-51
2022/06/18 10:08:23;;;;;;;3.00;1.42;;;;;;;24.28;38.39;95068.59;1713212;82;21081;-50
2022/06/18 10:11:07;;;;;;;4.30;1.62;;;;;;;24.14;39.43;95069.77;1737500;82;20968;-49
2022/06/18 10:13:27;;;;;;;1.52;1.10;;;;;;;24.17;39.37;95070.88;1715473;82;21007;-51
2022/06/18 10:16:00;;;;;;;5.12;3.67;;;;;;;24.18;37.15;95059.00;1693260;82;21582;-50
2022/06/18 10:18:53;;;;;;;2.85;1.65;;;;;;;24.22;38.78;95062.27;1737821;82;21553;-53
2022/06/18 10:21:43;;;;;;;1.85;1.20;;;;;;;24.42;39.58;95062.53;1737763;82;20943;-53
2022/06/18 10:24:43;;;;;;;1.65;1.12;;;;;;;24.61;40.53;95055.56;1737618;82;21057;-49
2022/06/18 10:27:52;;;;;;;1.60;1.45;;;;;;;24.65;39.76;95058.83;1736929;82;20954;-48
2022/06/18 10:30:34;;;;;;;5.92;1.60;;;;;;;24.60;37.87;95059.67;1737657;82;21162;-51
2022/06/18 10:33:11;;;;;;;1.57;1.20;;;;;;;24.46;39.40;95061.61;1738050;82;21004;-51
2022/06/18 10:36:02;;;;;;;2.00;1.42;;;;;;;24.61;39.10;95065.41;1737956;82;20975;-49
2022/06/18 10:38:57;;;;;;;6.45;3.37;;;;;;;24.77;36.78;95053.92;1725161;82;21427;-50
2022/06/18 10:41:55;;;;;;;3.17;2.02;;;;;;;24.94;36.25;95048.83;1737388;82;20991;-51
2022/06/18 10:44:47;;;;;;;2.00;1.90;;;;;;;25.12;37.51;95049.45;1643074;86;21172;-50
2022/06/18 10:47:17;;;;;;;1.47;1.15;;;;;;;25.57;37.67;95045.31;1643025;86;21102;-51
2022/06/18 10:49:46;;;;;;;2.70;1.25;;;;;;;25.84;35.06;95049.73;1694984;82;21011;-51
2022/06/18 10:52:23;;;;;;;4.25;1.45;;;;;;;25.67;35.21;95052.83;1737994;82;21050;-50
2022/06/18 10:54:51;;;;;;;1.62;1.47;;;;;;;25.42;36.37;95052.87;1738010;82;21412;-51
2022/06/18 10:57:26;;;;;;;2.05;1.85;;;;;;;25.37;35.89;95046.68;1738369;82;21121;-51
2022/06/18 10:59:54;;;;;;;1.95;1.70;;;;;;;25.38;36.36;95050.25;1717681;82;20987;-50
2022/06/18 11:02:29;;;;;;;2.52;1.57;;;;;;;25.72;38.27;95048.40;1737862;82;20975;-50
2022/06/18 11:05:00;;;;;;;3.70;1.37;;;;;;;25.91;38.20;95048.48;1717230;82;21027;-49
2022/06/18 11:07:30;;;;;;;1.07;1.07;;;;;;;25.92;35.69;95052.05;1738163;82;21058;-51
2022/06/18 11:10:05;;;;;;;1.67;1.10;;;;;;;25.71;36.47;95041.24;1737906;82;21928;-49
2022/06/18 11:12:38;;;;;;;2.65;1.00;;;;;;;25.46;35.61;95049.75;1738225;82;21376;-49
2022/06/18 11:15:22;;;;;;;1.45;1.20;;;;;;;25.60;37.13;95047.05;1737835;82;21007;-49
2022/06/18 11:17:50;;;;;;;3.92;1.40;;;;;;;26.05;35.76;95032.44;1732646;82;21510;-50
2022/06/18 11:20:27;;;;;;;1.37;1.20;;;;;;;26.72;37.13;95032.66;1737837;82;21042;-49
2022/06/18 11:23:04;;;;;;;1.47;0.90;;;;;;;26.73;35.86;95032.75;1737896;82;21748;-50
2022/06/18 11:25:43;;;;;;;1.20;0.80;;;;;;;26.51;34.61;95027.55;1738178;82;20987;-50
2022/06/18 11:28:31;;;;;;;3.02;1.15;;;;;;;26.03;34.44;95037.09;1741935;82;21474;-50
2022/06/18 11:30:58;;;;;;;2.00;1.50;;;;;;;25.50;34.87;95037.50;1674977;82;20998;-50
2022/06/18 11:33:33;;;;;;;2.33;1.22;;;;;;;24.96;35.43;95039.86;1747599;82;21014;-50
2022/06/18 11:36:11;;;;;;;3.10;1.10;;;;;;;24.64;35.97;95033.39;1747623;82;21139;-52
2022/06/18 11:38:40;;;;;;;1.57;1.20;;;;;;;25.15;36.56;95030.73;1740649;82;20939;-52
2022/06/18 11:41:12;;;;;;;2.33;1.37;;;;;;;25.93;37.06;95024.06;1747759;82;21054;-53
2022/06/18 11:43:57;;;;;;;2.65;1.37;;;;;;;26.76;34.48;95015.36;1746974;82;21421;-52
2022/06/18 11:46:34;;;;;;;1.20;0.95;;;;;;;27.50;34.78;95005.55;1747774;82;21521;-53
2022/06/18 11:49:34;;;;;;;1.12;0.80;;;;;;;28.18;33.67;95016.11;1747879;82;21864;-51
2022/06/18 11:52:29;;;;;;;1.62;1.00;;;;;;;28.66;32.71;95007.44;1747273;82;20935;-50
2022/06/18 11:55:11;;;;;;;1.00;0.85;;;;;;;29.20;32.57;95010.70;1749596;82;21041;-51
2022/06/18 11:57:53;;;;;;;1.62;0.82;;;;;;;29.36;29.64;95009.42;1747129;82;20999;-51
2022/06/18 12:00:24;;;;;;;3.22;1.05;;;;;;;29.45;29.66;95010.91;1737383;82;20950;-53
2022/06/18 12:03:26;;;;;;;4.10;1.10;;;;;;;28.99;29.81;95016.39;1724574;82;21140;-52
2022/06/18 12:06:19;;;;;;;4.33;1.00;;;;;;;28.55;30.81;95018.43;1747661;82;21038;-50
2022/06/18 12:08:50;;;;;;;2.37;1.10;;;;;;;28.66;31.65;95013.10;1747622;82;21033;-51
2022/06/18 12:11:36;;;;;;;4.83;0.90;;;;;;;29.02;29.78;95001.09;1747856;82;21078;-50
2022/06/18 12:14:21;;;;;;;1.72;1.10;;;;;;;29.37;31.89;95004.48;1691129;82;21680;-51
2022/06/18 12:17:04;;;;;;;11.55;1.98;;;;;;;29.85;30.26;94989.25;1636617;82;21873;-51
2022/06/18 12:19:46;;;;;;;2.33;0.88;;;;;;;30.23;29.38;94994.34;1747790;82;21023;-56
2022/06/18 12:22:41;;;;;;;2.65;0.70;;;;;;;30.51;29.53;94987.66;1746957;82;20967;-52